sensor_id;sensor_type;location;lat;lon;timestamp;temperature;humidity
23744;DHT22;12052;53.478;10.182;2022-09-06T00:01:37;17.70;99.90
23744;DHT22;12052;53.478;10.182;2022-09-06T00:04:03;17.70;99.90
23744;DHT22;12052;53.478;10.182;2022-09-06T00:06:29;17.60;99.90
23744;DHT22;12052;53.478;10.182;2022-09-06T00:08:54;17.60;99.90
23744;DHT22;12052;53.478;10.182;2022-09-06T00:11:20;17.60;99.90
23744;DHT22;12052;53.478;10.182;2022-09-06T00:13:46;17.60;99.90
23744;DHT22;12052;53.478;10.182;2022-09-06T00:16:18;17.60;99.90
23744;DHT22;12052;53.478;10.182;2022-09-06T00:18:44;17.60;99.90
23744;DHT22;12052;53.478;10.182;2022-09-06T00:21:16;17.60;99.90
23744;DHT22;12052;53.478;10.182;2022-09-06T00:23:42;17.60;99.90
23744;DHT22;12052;53.478;10.182;2022-09-06T00:26:08;17.60;99.90
23744;DHT22;12052;53.478;10.182;2022-09-06T00:28:33;17.50;99.90
23744;DHT22;12052;53.478;10.182;2022-09-06T00:31:07;17.60;99.90
23744;DHT22;12052;53.478;10.182;2022-09-06T00:33:33;17.60;99.90
23744;DHT22;12052;53.478;10.182;2022-09-06T00:35:58;17.50;99.90
23744;DHT22;12052;53.478;10.182;2022-09-06T00:38:25;17.50;99.90
23744;DHT22;12052;53.478;10.182;2022-09-06T00:40:50;17.50;99.90
23744;DHT22;12052;53.478;10.182;2022-09-06T00:43:16;17.50;99.90
23744;DHT22;12052;53.478;10.182;2022-09-06T00:45:41;17.50;99.90
23744;DHT22;12052;53.478;10.182;2022-09-06T00:48:07;17.50;99.90
23744;DHT22;12052;53.478;10.182;2022-09-06T00:50:32;17.50;99.90
23744;DHT22;12052;53.478;10.182;2022-09-06T00:52:58;17.50;99.90
23744;DHT22;12052;53.478;10.182;2022-09-06T00:55:25;17.50;99.90
23744;DHT22;12052;53.478;10.182;2022-09-06T00:57:51;17.40;99.90
23744;DHT22;12052;53.478;10.182;2022-09-06T01:00:18;17.40;99.90
23744;DHT22;12052;53.478;10.182;2022-09-06T01:02:44;17.30;99.90
23744;DHT22;12052;53.478;10.182;2022-09-06T01:05:11;17.30;99.90
23744;DHT22;12052;53.478;10.182;2022-09-06T01:13:00;17.20;99.90
23744;DHT22;12052;53.478;10.182;2022-09-06T01:15:38;17.20;99.90
23744;DHT22;12052;53.478;10.182;2022-09-06T01:29:38;17.20;99.90
23744;DHT22;12052;53.478;10.182;2022-09-06T01:32:14;17.20;99.90
23744;DHT22;12052;53.478;10.182;2022-09-06T01:34:46;17.10;99.90
23744;DHT22;12052;53.478;10.182;2022-09-06T01:37:15;17.10;99.90
23744;DHT22;12052;53.478;10.182;2022-09-06T01:39:42;17.10;99.90
23744;DHT22;12052;53.478;10.182;2022-09-06T01:42:24;17.10;99.90
23744;DHT22;12052;53.478;10.182;2022-09-06T01:47:37;17.10;99.90
23744;DHT22;12052;53.478;10.182;2022-09-06T01:52:58;17.10;99.90
23744;DHT22;12052;53.478;10.182;2022-09-06T02:01:12;17.10;99.90
23744;DHT22;12052;53.478;10.182;2022-09-06T02:04:12;17.10;99.90
23744;DHT22;12052;53.478;10.182;2022-09-06T02:06:45;17.10;99.90
23744;DHT22;12052;53.478;10.182;2022-09-06T02:09:13;17.10;99.90
23744;DHT22;12052;53.478;10.182;2022-09-06T02:11:49;17.10;99.90
23744;DHT22;12052;53.478;10.182;2022-09-06T02:14:19;17.10;99.90
23744;DHT22;12052;53.478;10.182;2022-09-06T02:16:48;17.00;99.90
23744;DHT22;12052;53.478;10.182;2022-09-06T02:19:30;17.00;99.90
23744;DHT22;12052;53.478;10.182;2022-09-06T02:21:58;17.00;99.90
23744;DHT22;12052;53.478;10.182;2022-09-06T02:24:28;17.00;99.80
23744;DHT22;12052;53.478;10.182;2022-09-06T02:26:55;17.00;99.70
23744;DHT22;12052;53.478;10.182;2022-09-06T02:29:21;17.00;99.70
23744;DHT22;12052;53.478;10.182;2022-09-06T02:32:02;17.00;99.70
23744;DHT22;12052;53.478;10.182;2022-09-06T02:34:29;17.00;99.50
23744;DHT22;12052;53.478;10.182;2022-09-06T02:36:55;17.00;99.30
23744;DHT22;12052;53.478;10.182;2022-09-06T02:39:21;17.00;99.30
23744;DHT22;12052;53.478;10.182;2022-09-06T02:41:47;17.00;99.50
23744;DHT22;12052;53.478;10.182;2022-09-06T02:44:13;17.00;99.10
23744;DHT22;12052;53.478;10.182;2022-09-06T02:46:39;17.00;99.00
23744;DHT22;12052;53.478;10.182;2022-09-06T02:49:05;17.00;98.90
23744;DHT22;12052;53.478;10.182;2022-09-06T02:51:38;17.00;98.80
23744;DHT22;12052;53.478;10.182;2022-09-06T02:54:04;17.00;98.80
23744;DHT22;12052;53.478;10.182;2022-09-06T02:56:30;17.00;98.80
23744;DHT22;12052;53.478;10.182;2022-09-06T02:58:58;16.90;98.50
23744;DHT22;12052;53.478;10.182;2022-09-06T03:01:24;16.90;98.70
23744;DHT22;12052;53.478;10.182;2022-09-06T03:03:49;16.90;98.90
23744;DHT22;12052;53.478;10.182;2022-09-06T03:06:15;16.90;98.70
23744;DHT22;12052;53.478;10.182;2022-09-06T03:08:40;16.90;98.60
23744;DHT22;12052;53.478;10.182;2022-09-06T03:11:06;16.90;98.60
23744;DHT22;12052;53.478;10.182;2022-09-06T03:13:32;16.80;98.50
23744;DHT22;12052;53.478;10.182;2022-09-06T03:15:58;16.80;98.40
23744;DHT22;12052;53.478;10.182;2022-09-06T03:18:25;16.80;98.40
23744;DHT22;12052;53.478;10.182;2022-09-06T03:20:52;16.80;98.40
23744;DHT22;12052;53.478;10.182;2022-09-06T03:23:19;16.80;98.40
23744;DHT22;12052;53.478;10.182;2022-09-06T03:25:45;16.80;98.40
23744;DHT22;12052;53.478;10.182;2022-09-06T03:28:10;16.70;98.40
23744;DHT22;12052;53.478;10.182;2022-09-06T03:30:37;16.70;98.50
23744;DHT22;12052;53.478;10.182;2022-09-06T03:33:04;16.70;98.50
23744;DHT22;12052;53.478;10.182;2022-09-06T03:35:30;16.70;98.20
23744;DHT22;12052;53.478;10.182;2022-09-06T03:37:55;16.60;98.40
23744;DHT22;12052;53.478;10.182;2022-09-06T03:40:21;16.60;98.20
23744;DHT22;12052;53.478;10.182;2022-09-06T03:42:46;16.60;98.20
23744;DHT22;12052;53.478;10.182;2022-09-06T03:45:12;16.60;98.00
23744;DHT22;12052;53.478;10.182;2022-09-06T03:47:38;16.60;97.80
23744;DHT22;12052;53.478;10.182;2022-09-06T03:50:04;16.50;97.90
23744;DHT22;12052;53.478;10.182;2022-09-06T03:52:30;16.50;97.90
23744;DHT22;12052;53.478;10.182;2022-09-06T03:54:55;16.50;98.00
23744;DHT22;12052;53.478;10.182;2022-09-06T03:57:21;16.50;98.10
23744;DHT22;12052;53.478;10.182;2022-09-06T03:59:46;16.40;97.90
23744;DHT22;12052;53.478;10.182;2022-09-06T04:02:12;16.40;97.90
23744;DHT22;12052;53.478;10.182;2022-09-06T04:04:38;16.40;97.70
23744;DHT22;12052;53.478;10.182;2022-09-06T04:07:03;16.30;97.60
23744;DHT22;12052;53.478;10.182;2022-09-06T04:09:29;16.30;97.70
23744;DHT22;12052;53.478;10.182;2022-09-06T04:11:54;16.30;97.80
23744;DHT22;12052;53.478;10.182;2022-09-06T04:14:20;16.20;97.70
23744;DHT22;12052;53.478;10.182;2022-09-06T04:16:45;16.20;97.60
23744;DHT22;12052;53.478;10.182;2022-09-06T04:19:11;16.20;97.60
23744;DHT22;12052;53.478;10.182;2022-09-06T04:21:36;16.10;97.60
23744;DHT22;12052;53.478;10.182;2022-09-06T04:24:03;16.10;97.70
23744;DHT22;12052;53.478;10.182;2022-09-06T04:26:28;16.10;97.70
23744;DHT22;12052;53.478;10.182;2022-09-06T04:28:54;16.10;97.60
23744;DHT22;12052;53.478;10.182;2022-09-06T04:31:19;16.00;97.60
23744;DHT22;12052;53.478;10.182;2022-09-06T04:33:48;16.00;97.50
23744;DHT22;12052;53.478;10.182;2022-09-06T04:36:14;16.00;97.70
23744;DHT22;12052;53.478;10.182;2022-09-06T04:38:41;15.90;97.70
23744;DHT22;12052;53.478;10.182;2022-09-06T04:41:10;15.90;98.10
23744;DHT22;12052;53.478;10.182;2022-09-06T04:43:36;15.90;97.40
23744;DHT22;12052;53.478;10.182;2022-09-06T04:46:06;15.90;97.70
23744;DHT22;12052;53.478;10.182;2022-09-06T04:48:33;15.80;97.50
23744;DHT22;12052;53.478;10.182;2022-09-06T04:50:59;15.80;97.80
23744;DHT22;12052;53.478;10.182;2022-09-06T04:53:24;15.80;97.60
23744;DHT22;12052;53.478;10.182;2022-09-06T04:55:50;15.80;97.50
23744;DHT22;12052;53.478;10.182;2022-09-06T04:58:15;15.70;97.60
23744;DHT22;12052;53.478;10.182;2022-09-06T05:00:41;15.70;97.80
23744;DHT22;12052;53.478;10.182;2022-09-06T05:03:09;15.70;97.70
23744;DHT22;12052;53.478;10.182;2022-09-06T05:05:34;15.70;97.60
23744;DHT22;12052;53.478;10.182;2022-09-06T05:08:00;15.70;97.60
23744;DHT22;12052;53.478;10.182;2022-09-06T05:10:25;15.70;97.70
23744;DHT22;12052;53.478;10.182;2022-09-06T05:12:52;15.70;97.60
23744;DHT22;12052;53.478;10.182;2022-09-06T05:15:20;15.70;97.70
23744;DHT22;12052;53.478;10.182;2022-09-06T05:17:46;15.70;97.60
23744;DHT22;12052;53.478;10.182;2022-09-06T05:20:13;15.70;97.40
23744;DHT22;12052;53.478;10.182;2022-09-06T05:22:39;15.70;97.40
23744;DHT22;12052;53.478;10.182;2022-09-06T05:25:06;15.70;97.50
23744;DHT22;12052;53.478;10.182;2022-09-06T05:27:31;15.70;97.50
23744;DHT22;12052;53.478;10.182;2022-09-06T05:29:57;15.70;97.60
23744;DHT22;12052;53.478;10.182;2022-09-06T05:32:22;15.70;97.60
23744;DHT22;12052;53.478;10.182;2022-09-06T05:34:48;15.70;97.80
23744;DHT22;12052;53.478;10.182;2022-09-06T05:37:14;15.70;97.90
23744;DHT22;12052;53.478;10.182;2022-09-06T05:39:39;15.70;97.70
23744;DHT22;12052;53.478;10.182;2022-09-06T05:42:05;15.70;97.60
23744;DHT22;12052;53.478;10.182;2022-09-06T05:44:35;15.70;97.90
23744;DHT22;12052;53.478;10.182;2022-09-06T05:47:01;15.80;97.80
23744;DHT22;12052;53.478;10.182;2022-09-06T05:49:30;15.80;98.10
23744;DHT22;12052;53.478;10.182;2022-09-06T05:51:57;15.80;97.70
23744;DHT22;12052;53.478;10.182;2022-09-06T05:54:23;15.80;98.00
23744;DHT22;12052;53.478;10.182;2022-09-06T05:56:49;15.80;98.00
23744;DHT22;12052;53.478;10.182;2022-09-06T05:59:15;15.80;98.00
23744;DHT22;12052;53.478;10.182;2022-09-06T06:01:48;15.80;97.80
23744;DHT22;12052;53.478;10.182;2022-09-06T06:04:15;15.80;97.90
23744;DHT22;12052;53.478;10.182;2022-09-06T06:06:42;15.80;98.20
23744;DHT22;12052;53.478;10.182;2022-09-06T06:09:08;15.80;98.20
23744;DHT22;12052;53.478;10.182;2022-09-06T06:11:34;15.80;98.30
23744;DHT22;12052;53.478;10.182;2022-09-06T06:14:01;15.90;98.20
23744;DHT22;12052;53.478;10.182;2022-09-06T06:16:26;15.90;98.60
23744;DHT22;12052;53.478;10.182;2022-09-06T06:18:53;15.90;98.50
23744;DHT22;12052;53.478;10.182;2022-09-06T06:21:24;15.90;98.00
23744;DHT22;12052;53.478;10.182;2022-09-06T06:23:52;16.00;98.10
23744;DHT22;12052;53.478;10.182;2022-09-06T06:26:18;16.00;98.40
23744;DHT22;12052;53.478;10.182;2022-09-06T06:28:44;16.00;98.20
23744;DHT22;12052;53.478;10.182;2022-09-06T06:31:10;16.00;98.30
23744;DHT22;12052;53.478;10.182;2022-09-06T06:33:37;16.00;98.40
23744;DHT22;12052;53.478;10.182;2022-09-06T06:38:39;16.10;98.20
23744;DHT22;12052;53.478;10.182;2022-09-06T06:41:07;16.10;98.60
23744;DHT22;12052;53.478;10.182;2022-09-06T06:43:33;16.10;98.20
23744;DHT22;12052;53.478;10.182;2022-09-06T06:46:14;16.10;98.30
23744;DHT22;12052;53.478;10.182;2022-09-06T06:48:42;16.20;98.50
23744;DHT22;12052;53.478;10.182;2022-09-06T06:51:09;16.20;98.20
23744;DHT22;12052;53.478;10.182;2022-09-06T06:53:35;16.20;98.70
23744;DHT22;12052;53.478;10.182;2022-09-06T06:56:11;16.30;98.30
23744;DHT22;12052;53.478;10.182;2022-09-06T06:58:37;16.20;98.30
23744;DHT22;12052;53.478;10.182;2022-09-06T07:01:02;16.20;98.30
23744;DHT22;12052;53.478;10.182;2022-09-06T07:03:28;16.20;98.50
23744;DHT22;12052;53.478;10.182;2022-09-06T07:05:53;16.30;98.40
23744;DHT22;12052;53.478;10.182;2022-09-06T07:08:19;16.30;98.90
23744;DHT22;12052;53.478;10.182;2022-09-06T07:10:45;16.30;98.70
23744;DHT22;12052;53.478;10.182;2022-09-06T07:13:11;16.30;98.80
23744;DHT22;12052;53.478;10.182;2022-09-06T07:15:36;16.40;98.70
23744;DHT22;12052;53.478;10.182;2022-09-06T07:18:02;16.40;98.80
23744;DHT22;12052;53.478;10.182;2022-09-06T07:20:28;16.40;99.30
23744;DHT22;12052;53.478;10.182;2022-09-06T07:23:01;16.50;98.60
23744;DHT22;12052;53.478;10.182;2022-09-06T07:25:29;16.50;98.60
23744;DHT22;12052;53.478;10.182;2022-09-06T07:27:59;16.60;99.20
23744;DHT22;12052;53.478;10.182;2022-09-06T07:30:27;16.60;99.20
23744;DHT22;12052;53.478;10.182;2022-09-06T07:32:53;16.60;99.00
23744;DHT22;12052;53.478;10.182;2022-09-06T07:35:18;16.60;99.10
23744;DHT22;12052;53.478;10.182;2022-09-06T07:37:54;16.60;99.20
23744;DHT22;12052;53.478;10.182;2022-09-06T07:40:20;16.70;99.40
23744;DHT22;12052;53.478;10.182;2022-09-06T07:42:45;16.70;99.30
23744;DHT22;12052;53.478;10.182;2022-09-06T07:45:11;16.80;99.40
23744;DHT22;12052;53.478;10.182;2022-09-06T07:47:36;16.80;99.20
23744;DHT22;12052;53.478;10.182;2022-09-06T07:50:03;16.80;98.90
23744;DHT22;12052;53.478;10.182;2022-09-06T07:52:29;16.80;99.60
23744;DHT22;12052;53.478;10.182;2022-09-06T07:54:54;16.90;99.40
23744;DHT22;12052;53.478;10.182;2022-09-06T07:57:21;16.90;99.50
23744;DHT22;12052;53.478;10.182;2022-09-06T07:59:47;16.90;99.30
23744;DHT22;12052;53.478;10.182;2022-09-06T08:02:13;17.00;99.60
23744;DHT22;12052;53.478;10.182;2022-09-06T08:04:38;17.10;99.60
23744;DHT22;12052;53.478;10.182;2022-09-06T08:07:06;17.10;99.70
23744;DHT22;12052;53.478;10.182;2022-09-06T08:09:31;17.20;99.40
23744;DHT22;12052;53.478;10.182;2022-09-06T08:11:57;17.30;99.40
23744;DHT22;12052;53.478;10.182;2022-09-06T08:14:22;17.30;99.60
23744;DHT22;12052;53.478;10.182;2022-09-06T08:16:48;17.40;99.90
23744;DHT22;12052;53.478;10.182;2022-09-06T08:19:14;17.40;99.30
23744;DHT22;12052;53.478;10.182;2022-09-06T08:21:40;17.50;99.90
23744;DHT22;12052;53.478;10.182;2022-09-06T08:24:07;17.50;99.70
23744;DHT22;12052;53.478;10.182;2022-09-06T08:26:37;17.60;99.80
23744;DHT22;12052;53.478;10.182;2022-09-06T08:29:08;17.60;99.60
23744;DHT22;12052;53.478;10.182;2022-09-06T08:31:36;17.70;99.70
23744;DHT22;12052;53.478;10.182;2022-09-06T08:34:02;17.70;99.70
23744;DHT22;12052;53.478;10.182;2022-09-06T08:36:29;17.70;99.90
23744;DHT22;12052;53.478;10.182;2022-09-06T08:38:59;17.80;99.70
23744;DHT22;12052;53.478;10.182;2022-09-06T08:41:58;17.80;99.80
23744;DHT22;12052;53.478;10.182;2022-09-06T08:47:11;17.80;99.90
23744;DHT22;12052;53.478;10.182;2022-09-06T08:49:45;17.80;99.90
23744;DHT22;12052;53.478;10.182;2022-09-06T08:54:40;17.80;99.90
23744;DHT22;12052;53.478;10.182;2022-09-06T08:59:53;17.80;99.90
23744;DHT22;12052;53.478;10.182;2022-09-06T09:02:20;17.80;99.70
23744;DHT22;12052;53.478;10.182;2022-09-06T09:04:58;17.80;99.90
23744;DHT22;12052;53.478;10.182;2022-09-06T09:07:45;17.80;99.90
23744;DHT22;12052;53.478;10.182;2022-09-06T09:10:29;17.80;99.90
23744;DHT22;12052;53.478;10.182;2022-09-06T09:12:59;17.80;99.90
23744;DHT22;12052;53.478;10.182;2022-09-06T09:15:27;17.80;99.90
23744;DHT22;12052;53.478;10.182;2022-09-06T09:17:53;17.80;99.90
23744;DHT22;12052;53.478;10.182;2022-09-06T09:20:20;17.80;99.90
23744;DHT22;12052;53.478;10.182;2022-09-06T09:22:45;17.80;99.90
23744;DHT22;12052;53.478;10.182;2022-09-06T09:25:17;17.80;99.90
23744;DHT22;12052;53.478;10.182;2022-09-06T09:27:44;17.80;99.90
23744;DHT22;12052;53.478;10.182;2022-09-06T09:30:11;17.80;99.90
23744;DHT22;12052;53.478;10.182;2022-09-06T09:32:38;17.80;99.90
23744;DHT22;12052;53.478;10.182;2022-09-06T09:38:06;17.80;99.90
23744;DHT22;12052;53.478;10.182;2022-09-06T09:40:50;17.80;99.90
23744;DHT22;12052;53.478;10.182;2022-09-06T09:43:36;17.80;99.90
23744;DHT22;12052;53.478;10.182;2022-09-06T09:46:26;17.90;99.90
23744;DHT22;12052;53.478;10.182;2022-09-06T09:51:38;17.90;99.90
23744;DHT22;12052;53.478;10.182;2022-09-06T09:54:07;17.90;99.90
23744;DHT22;12052;53.478;10.182;2022-09-06T09:56:49;17.90;99.90
23744;DHT22;12052;53.478;10.182;2022-09-06T09:59:21;17.90;99.90
23744;DHT22;12052;53.478;10.182;2022-09-06T10:01:47;17.90;99.90
23744;DHT22;12052;53.478;10.182;2022-09-06T10:04:36;17.90;99.90
23744;DHT22;12052;53.478;10.182;2022-09-06T10:07:42;18.00;99.90
23744;DHT22;12052;53.478;10.182;2022-09-06T10:10:20;18.00;99.90
23744;DHT22;12052;53.478;10.182;2022-09-06T10:12:46;18.00;99.90
23744;DHT22;12052;53.478;10.182;2022-09-06T10:17:57;18.10;99.90
23744;DHT22;12052;53.478;10.182;2022-09-06T10:20:41;18.10;99.90
23744;DHT22;12052;53.478;10.182;2022-09-06T10:23:51;18.10;99.90
23744;DHT22;12052;53.478;10.182;2022-09-06T10:29:03;18.20;99.90
23744;DHT22;12052;53.478;10.182;2022-09-06T10:31:59;18.30;99.90
23744;DHT22;12052;53.478;10.182;2022-09-06T10:43:19;18.60;99.90
23744;DHT22;12052;53.478;10.182;2022-09-06T10:45:58;18.60;99.90
23744;DHT22;12052;53.478;10.182;2022-09-06T10:50:56;18.70;99.90
23744;DHT22;12052;53.478;10.182;2022-09-06T10:56:15;18.80;99.90
23744;DHT22;12052;53.478;10.182;2022-09-06T11:03:59;18.90;99.90
23744;DHT22;12052;53.478;10.182;2022-09-06T11:06:32;19.00;99.90
23744;DHT22;12052;53.478;10.182;2022-09-06T11:09:23;19.00;99.90
23744;DHT22;12052;53.478;10.182;2022-09-06T11:12:13;19.00;99.90
23744;DHT22;12052;53.478;10.182;2022-09-06T11:14:40;19.10;99.90
23744;DHT22;12052;53.478;10.182;2022-09-06T11:17:11;19.10;99.90
23744;DHT22;12052;53.478;10.182;2022-09-06T11:19:47;19.20;99.90
23744;DHT22;12052;53.478;10.182;2022-09-06T11:23:19;19.20;99.90
23744;DHT22;12052;53.478;10.182;2022-09-06T11:28:02;19.30;99.90
23744;DHT22;12052;53.478;10.182;2022-09-06T11:30:29;19.30;99.90
23744;DHT22;12052;53.478;10.182;2022-09-06T11:33:21;19.30;99.90
23744;DHT22;12052;53.478;10.182;2022-09-06T11:35:48;19.40;99.90
23744;DHT22;12052;53.478;10.182;2022-09-06T11:40:55;19.40;99.90
23744;DHT22;12052;53.478;10.182;2022-09-06T11:43:48;19.50;99.90
23744;DHT22;12052;53.478;10.182;2022-09-06T11:51:40;19.60;99.90
23744;DHT22;12052;53.478;10.182;2022-09-06T12:04:22;19.80;99.90
23744;DHT22;12052;53.478;10.182;2022-09-06T12:07:08;19.80;99.90
23744;DHT22;12052;53.478;10.182;2022-09-06T12:09:41;19.90;99.90
23744;DHT22;12052;53.478;10.182;2022-09-06T12:12:09;19.80;99.90
23744;DHT22;12052;53.478;10.182;2022-09-06T12:14:43;19.90;99.90
23744;DHT22;12052;53.478;10.182;2022-09-06T12:19:47;19.90;99.90
23744;DHT22;12052;53.478;10.182;2022-09-06T12:25:17;19.90;99.90
23744;DHT22;12052;53.478;10.182;2022-09-06T12:28:19;20.00;99.90
23744;DHT22;12052;53.478;10.182;2022-09-06T12:30:46;20.00;99.90
23744;DHT22;12052;53.478;10.182;2022-09-06T12:33:22;20.00;99.90
23744;DHT22;12052;53.478;10.182;2022-09-06T12:35:48;20.10;99.90
23744;DHT22;12052;53.478;10.182;2022-09-06T12:38:15;20.20;99.90
23744;DHT22;12052;53.478;10.182;2022-09-06T12:40:46;20.20;99.90
23744;DHT22;12052;53.478;10.182;2022-09-06T12:43:14;20.30;99.90
23744;DHT22;12052;53.478;10.182;2022-09-06T12:45:43;20.40;99.90
23744;DHT22;12052;53.478;10.182;2022-09-06T12:51:02;20.50;99.90
23744;DHT22;12052;53.478;10.182;2022-09-06T12:53:28;20.50;99.90
23744;DHT22;12052;53.478;10.182;2022-09-06T12:56:07;20.50;99.90
23744;DHT22;12052;53.478;10.182;2022-09-06T12:58:34;20.50;99.90
23744;DHT22;12052;53.478;10.182;2022-09-06T13:01:30;20.40;99.90
23744;DHT22;12052;53.478;10.182;2022-09-06T13:04:08;20.40;99.90
23744;DHT22;12052;53.478;10.182;2022-09-06T13:06:39;20.30;99.90
23744;DHT22;12052;53.478;10.182;2022-09-06T13:09:09;20.30;99.90
23744;DHT22;12052;53.478;10.182;2022-09-06T13:11:38;20.30;99.90
23744;DHT22;12052;53.478;10.182;2022-09-06T13:14:18;20.20;99.90
23744;DHT22;12052;53.478;10.182;2022-09-06T13:16:48;20.10;99.90
23744;DHT22;12052;53.478;10.182;2022-09-06T13:19:17;20.10;99.90
23744;DHT22;12052;53.478;10.182;2022-09-06T13:21:45;20.10;99.90
23744;DHT22;12052;53.478;10.182;2022-09-06T13:24:36;20.10;99.90
23744;DHT22;12052;53.478;10.182;2022-09-06T13:30:04;20.10;99.90
23744;DHT22;12052;53.478;10.182;2022-09-06T13:32:32;20.10;99.90
23744;DHT22;12052;53.478;10.182;2022-09-06T13:34:59;20.10;99.90
23744;DHT22;12052;53.478;10.182;2022-09-06T13:37:27;20.10;99.90
23744;DHT22;12052;53.478;10.182;2022-09-06T13:39:53;20.10;99.90
23744;DHT22;12052;53.478;10.182;2022-09-06T13:44:55;20.10;99.90
23744;DHT22;12052;53.478;10.182;2022-09-06T13:47:22;20.20;99.90
23744;DHT22;12052;53.478;10.182;2022-09-06T13:49:50;20.20;99.90
23744;DHT22;12052;53.478;10.182;2022-09-06T13:52:15;20.20;99.90
23744;DHT22;12052;53.478;10.182;2022-09-06T13:54:42;20.10;99.90
23744;DHT22;12052;53.478;10.182;2022-09-06T13:57:08;20.10;99.90
23744;DHT22;12052;53.478;10.182;2022-09-06T13:59:34;20.10;99.90
23744;DHT22;12052;53.478;10.182;2022-09-06T14:02:06;20.10;99.90
23744;DHT22;12052;53.478;10.182;2022-09-06T14:04:33;20.10;99.90
23744;DHT22;12052;53.478;10.182;2022-09-06T14:07:00;20.10;99.90
23744;DHT22;12052;53.478;10.182;2022-09-06T14:09:26;20.10;99.90
23744;DHT22;12052;53.478;10.182;2022-09-06T14:11:52;20.10;99.90
23744;DHT22;12052;53.478;10.182;2022-09-06T14:14:17;20.10;99.90
23744;DHT22;12052;53.478;10.182;2022-09-06T14:16:44;20.10;99.90
23744;DHT22;12052;53.478;10.182;2022-09-06T14:19:10;20.10;99.90
23744;DHT22;12052;53.478;10.182;2022-09-06T14:21:35;20.10;99.90
23744;DHT22;12052;53.478;10.182;2022-09-06T14:24:01;20.10;99.90
23744;DHT22;12052;53.478;10.182;2022-09-06T14:26:27;20.10;99.90
23744;DHT22;12052;53.478;10.182;2022-09-06T14:28:53;20.10;99.90
23744;DHT22;12052;53.478;10.182;2022-09-06T14:31:21;20.10;99.90
23744;DHT22;12052;53.478;10.182;2022-09-06T14:33:47;20.10;99.90
23744;DHT22;12052;53.478;10.182;2022-09-06T14:36:18;20.10;99.90
23744;DHT22;12052;53.478;10.182;2022-09-06T14:38:45;20.20;99.90
23744;DHT22;12052;53.478;10.182;2022-09-06T14:41:12;20.10;99.90
23744;DHT22;12052;53.478;10.182;2022-09-06T14:43:40;20.10;99.90
23744;DHT22;12052;53.478;10.182;2022-09-06T14:46:09;20.10;99.90
23744;DHT22;12052;53.478;10.182;2022-09-06T14:48:35;20.00;99.90
23744;DHT22;12052;53.478;10.182;2022-09-06T14:51:27;20.10;99.90
23744;DHT22;12052;53.478;10.182;2022-09-06T14:53:56;20.10;99.90
23744;DHT22;12052;53.478;10.182;2022-09-06T14:56:22;20.00;99.90
23744;DHT22;12052;53.478;10.182;2022-09-06T14:58:48;20.00;99.90
23744;DHT22;12052;53.478;10.182;2022-09-06T15:01:20;20.00;99.90
23744;DHT22;12052;53.478;10.182;2022-09-06T15:03:49;20.00;99.90
23744;DHT22;12052;53.478;10.182;2022-09-06T15:06:17;20.00;99.90
23744;DHT22;12052;53.478;10.182;2022-09-06T15:08:43;20.00;99.90
23744;DHT22;12052;53.478;10.182;2022-09-06T15:11:09;20.00;99.90
23744;DHT22;12052;53.478;10.182;2022-09-06T15:13:38;20.10;99.90
23744;DHT22;12052;53.478;10.182;2022-09-06T15:16:05;20.10;99.90
23744;DHT22;12052;53.478;10.182;2022-09-06T15:18:31;20.10;99.90
23744;DHT22;12052;53.478;10.182;2022-09-06T15:20:58;20.20;99.90
23744;DHT22;12052;53.478;10.182;2022-09-06T15:23:31;20.20;99.90
23744;DHT22;12052;53.478;10.182;2022-09-06T15:25:57;20.20;99.90
23744;DHT22;12052;53.478;10.182;2022-09-06T15:28:23;20.30;99.90
23744;DHT22;12052;53.478;10.182;2022-09-06T15:30:48;20.30;99.90
23744;DHT22;12052;53.478;10.182;2022-09-06T15:33:14;20.30;99.90
23744;DHT22;12052;53.478;10.182;2022-09-06T15:35:41;20.30;99.90
23744;DHT22;12052;53.478;10.182;2022-09-06T15:38:07;20.30;99.90
23744;DHT22;12052;53.478;10.182;2022-09-06T15:40:33;20.40;99.90
23744;DHT22;12052;53.478;10.182;2022-09-06T15:42:59;20.40;99.90
23744;DHT22;12052;53.478;10.182;2022-09-06T15:45:25;20.50;99.90
23744;DHT22;12052;53.478;10.182;2022-09-06T15:47:50;20.50;99.90
23744;DHT22;12052;53.478;10.182;2022-09-06T15:50:17;20.50;99.90
23744;DHT22;12052;53.478;10.182;2022-09-06T15:52:42;20.50;99.90
23744;DHT22;12052;53.478;10.182;2022-09-06T15:55:08;20.60;99.90
23744;DHT22;12052;53.478;10.182;2022-09-06T15:57:52;20.60;99.90
23744;DHT22;12052;53.478;10.182;2022-09-06T16:00:18;20.70;99.90
23744;DHT22;12052;53.478;10.182;2022-09-06T16:02:46;20.70;99.90
23744;DHT22;12052;53.478;10.182;2022-09-06T16:05:12;20.80;99.90
23744;DHT22;12052;53.478;10.182;2022-09-06T16:07:38;20.80;99.90
23744;DHT22;12052;53.478;10.182;2022-09-06T16:10:07;20.80;99.90
23744;DHT22;12052;53.478;10.182;2022-09-06T16:12:38;20.90;99.90
23744;DHT22;12052;53.478;10.182;2022-09-06T16:15:04;21.00;99.90
23744;DHT22;12052;53.478;10.182;2022-09-06T16:17:30;21.00;99.90
23744;DHT22;12052;53.478;10.182;2022-09-06T16:19:56;21.10;99.90
23744;DHT22;12052;53.478;10.182;2022-09-06T16:22:24;21.10;99.90
23744;DHT22;12052;53.478;10.182;2022-09-06T16:24:50;21.10;99.90
23744;DHT22;12052;53.478;10.182;2022-09-06T16:27:15;21.10;99.90
23744;DHT22;12052;53.478;10.182;2022-09-06T16:29:41;21.10;99.90
23744;DHT22;12052;53.478;10.182;2022-09-06T16:32:07;21.10;99.90
23744;DHT22;12052;53.478;10.182;2022-09-06T16:34:34;21.10;99.90
23744;DHT22;12052;53.478;10.182;2022-09-06T16:37:02;21.10;99.90
23744;DHT22;12052;53.478;10.182;2022-09-06T16:39:35;21.10;99.90
23744;DHT22;12052;53.478;10.182;2022-09-06T16:42:01;21.00;99.90
23744;DHT22;12052;53.478;10.182;2022-09-06T16:44:27;21.10;99.90
23744;DHT22;12052;53.478;10.182;2022-09-06T16:46:53;21.00;99.90
23744;DHT22;12052;53.478;10.182;2022-09-06T16:49:21;21.10;99.90
23744;DHT22;12052;53.478;10.182;2022-09-06T16:51:48;21.10;99.90
23744;DHT22;12052;53.478;10.182;2022-09-06T16:54:15;21.00;99.90
23744;DHT22;12052;53.478;10.182;2022-09-06T16:56:41;21.00;99.90
23744;DHT22;12052;53.478;10.182;2022-09-06T16:59:09;20.90;99.90
23744;DHT22;12052;53.478;10.182;2022-09-06T17:01:36;20.90;99.90
23744;DHT22;12052;53.478;10.182;2022-09-06T17:04:03;20.90;99.90
23744;DHT22;12052;53.478;10.182;2022-09-06T17:06:30;20.90;99.90
23744;DHT22;12052;53.478;10.182;2022-09-06T17:08:57;20.80;99.90
23744;DHT22;12052;53.478;10.182;2022-09-06T17:11:23;20.80;99.90